Time;durP1;ratioP1;P1;durP2;ratioP2;P2;SDS_P1;SDS_P2;PMS_P1;PMS_P2;Temp;Humidity;BMP_temperature;BMP_pressure;BME280_temperature;BME280_humidity;BME280_pressure;Samples;Min_cycle;Max_cycle;Signal;HPM_P1;HPM_P2
2022/11/15 00:00:19;;;;;;;9.70;4.90;;;9.80;79.20;;;;;;4999487;28;20050;-92
2022/11/15 00:02:45;;;;;;;7.18;5.22;;;9.90;79.40;;;;;;5029745;28;20564;-91
2022/11/15 00:05:14;;;;;;;8.82;4.50;;;9.90;79.40;;;;;;5014151;28;20085;-91
2022/11/15 00:07:48;;;;;;;7.78;5.25;;;9.90;79.30;;;;;;4999245;28;20022;-89
2022/11/15 00:10:30;;;;;;;12.85;5.00;;;9.90;79.30;;;;;;5015749;28;20014;-92
2022/11/15 00:16:32;;;;;;;12.77;6.28;;;10.00;79.50;;;;;;5017714;28;20161;-91
2022/11/15 00:18:58;;;;;;;7.53;4.78;;;9.90;79.60;;;;;;5014488;28;20058;-91
2022/11/15 00:21:42;;;;;;;7.18;4.53;;;9.90;79.70;;;;;;5031655;28;20091;-91
2022/11/15 00:27:30;;;;;;;10.55;5.15;;;9.90;80.30;;;;;;5017476;28;20045;-91
2022/11/15 00:29:55;;;;;;;10.52;5.22;;;9.90;80.50;;;;;;5016483;28;20026;-91
2022/11/15 00:35:54;;;;;;;9.52;5.53;;;9.90;80.30;;;;;;5018700;28;20021;-91
2022/11/15 00:38:20;;;;;;;7.60;4.97;;;9.90;80.50;;;;;;5016848;28;20408;-93
2022/11/15 00:40:45;;;;;;;11.73;5.13;;;9.90;80.60;;;;;;5021586;28;20033;-92
2022/11/15 00:43:19;;;;;;;6.03;4.93;;;9.90;80.60;;;;;;5033722;28;20037;-92
2022/11/15 00:45:47;;;;;;;7.20;5.15;;;10.00;80.60;;;;;;5038727;28;20025;-92
2022/11/15 00:48:13;;;;;;;7.68;5.30;;;10.00;80.60;;;;;;5016858;28;20041;-93
2022/11/15 00:50:55;;;;;;;7.53;4.00;;;10.00;80.50;;;;;;5016745;28;20033;-93
2022/11/15 00:53:21;;;;;;;5.50;4.10;;;10.10;80.60;;;;;;5016903;28;20124;-92
2022/11/15 00:55:56;;;;;;;7.22;5.38;;;10.10;80.70;;;;;;5034271;28;20311;-92
2022/11/15 00:58:21;;;;;;;7.47;4.20;;;10.10;80.70;;;;;;5015343;28;20049;-91
2022/11/15 01:00:47;;;;;;;6.15;3.78;;;10.10;81.00;;;;;;5031543;28;20030;-92
2022/11/15 01:03:13;;;;;;;6.72;4.78;;;10.10;80.80;;;;;;5048088;28;20484;-92
2022/11/15 01:05:42;;;;;;;7.47;4.20;;;10.10;80.80;;;;;;5014596;28;20535;-91
2022/11/15 01:08:16;;;;;;;8.77;4.75;;;10.10;80.80;;;;;;5014862;28;20026;-91
2022/11/15 01:10:44;;;;;;;6.72;4.55;;;10.10;80.90;;;;;;5026986;28;20028;-91
2022/11/15 01:13:10;;;;;;;6.53;3.92;;;10.10;80.80;;;;;;4998116;28;20029;-91
2022/11/15 01:16:16;;;;;;;6.57;5.10;;;10.10;80.90;;;;;;5014589;28;20029;-91
2022/11/15 01:21:27;;;;;;;5.93;3.63;;;10.10;81.10;;;;;;5034352;28;20403;-93
2022/11/15 01:24:34;;;;;;;6.90;4.57;;;10.10;81.10;;;;;;5017160;28;20124;-92
2022/11/15 01:27:03;;;;;;;7.00;4.45;;;10.20;81.00;;;;;;5026039;28;20040;-91
2022/11/15 01:29:50;;;;;;;4.80;3.58;;;10.20;81.10;;;;;;5025001;28;20036;-90
2022/11/15 01:32:24;;;;;;;6.85;3.85;;;10.20;81.10;;;;;;5008409;28;20053;-91
2022/11/15 01:34:55;;;;;;;9.90;4.18;;;10.20;81.10;;;;;;5016524;28;20009;-92
2022/11/15 01:37:21;;;;;;;7.80;3.42;;;10.30;81.00;;;;;;4999099;28;20055;-92
2022/11/15 01:39:53;;;;;;;4.82;3.42;;;10.30;81.00;;;;;;4986730;28;20128;-92
2022/11/15 01:42:47;;;;;;;8.13;4.38;;;10.30;80.90;;;;;;4999639;28;20038;-91
2022/11/15 01:45:16;;;;;;;6.28;4.20;;;10.30;80.90;;;;;;5003290;28;20034;-91
2022/11/15 01:47:58;;;;;;;5.88;3.75;;;10.30;81.00;;;;;;4996381;28;20045;-92
2022/11/15 01:50:36;;;;;;;5.88;3.55;;;10.40;80.90;;;;;;5015798;28;20033;-92
2022/11/15 01:53:02;;;;;;;8.35;4.43;;;10.40;80.90;;;;;;5018007;28;20061;-92
2022/11/15 01:55:34;;;;;;;3.83;3.33;;;10.40;81.00;;;;;;4985908;28;20033;-92
2022/11/15 01:58:13;;;;;;;5.78;4.35;;;10.40;81.00;;;;;;4991573;28;20045;-92
2022/11/15 02:00:49;;;;;;;;;;;;;;;;;;;;;
2022/11/15 02:03:16;;;;;;;6.97;3.92;;;10.40;81.10;;;;;;5008683;28;20049;-90
2022/11/15 02:05:43;;;;;;;6.72;4.05;;;10.40;81.00;;;;;;5012634;28;20095;-92
2022/11/15 02:08:19;;;;;;;8.18;4.20;;;10.50;81.10;;;;;;5012094;28;20049;-92
2022/11/15 02:10:46;;;;;;;5.47;3.55;;;10.40;81.20;;;;;;5011917;28;20050;-92
2022/11/15 02:13:17;;;;;;;4.40;3.55;;;10.50;81.30;;;;;;4999127;28;20030;-91
2022/11/15 02:16:33;;;;;;;6.07;3.60;;;10.50;81.20;;;;;;5012588;28;20076;-92
2022/11/15 02:19:20;;;;;;;5.35;3.35;;;10.60;81.20;;;;;;5018131;28;20021;-92
2022/11/15 02:21:58;;;;;;;7.80;3.90;;;10.60;81.20;;;;;;5028815;28;20117;-92
2022/11/15 02:24:46;;;;;;;6.97;3.63;;;10.60;81.30;;;;;;5012294;28;20506;-92
2022/11/15 02:27:31;;;;;;;6.53;3.72;;;10.60;81.30;;;;;;5011964;28;20045;-92
2022/11/15 02:30:20;;;;;;;5.05;3.03;;;10.60;81.20;;;;;;5027394;28;20042;-92
2022/11/15 02:32:58;;;;;;;6.63;3.72;;;10.70;81.10;;;;;;5012702;28;20046;-91
2022/11/15 02:36:01;;;;;;;7.53;3.95;;;10.70;81.20;;;;;;5014135;28;20030;-91
2022/11/15 02:38:48;;;;;;;4.47;2.85;;;10.70;81.20;;;;;;5007670;28;20054;-91
2022/11/15 02:41:36;;;;;;;3.45;3.03;;;10.70;81.20;;;;;;5013056;28;20034;-91
2022/11/15 02:44:24;;;;;;;6.75;3.50;;;10.80;81.10;;;;;;4992948;28;20041;-91
2022/11/15 02:47:13;;;;;;;4.78;3.80;;;10.80;81.10;;;;;;5012658;28;20527;-91
2022/11/15 02:49:56;;;;;;;4.15;3.10;;;10.80;81.10;;;;;;5012725;28;20038;-92
2022/11/15 02:52:27;;;;;;;;;;;10.80;81.20;;;;;;5012019;28;20026;-91
2022/11/15 02:55:00;;;;;;;5.25;3.00;;;10.80;81.20;;;;;;5013990;28;19952;-92
2022/11/15 02:57:32;;;;;;;5.40;3.53;;;10.80;81.30;;;;;;5012271;28;20023;-92
2022/11/15 03:00:17;;;;;;;5.45;3.20;;;10.80;81.20;;;;;;5031623;28;20034;-91
2022/11/15 03:03:12;;;;;;;3.58;3.28;;;10.90;81.20;;;;;;5016833;28;20423;-91
2022/11/15 03:05:47;;;;;;;4.85;2.70;;;10.90;81.30;;;;;;5033462;28;20049;-92
2022/11/15 03:08:32;;;;;;;9.40;3.70;;;10.90;81.40;;;;;;5033225;28;20033;-92
2022/11/15 03:11:10;;;;;;;5.15;2.67;;;10.90;81.30;;;;;;5017759;28;20014;-92
2022/11/15 03:14:00;;;;;;;4.13;3.35;;;10.90;81.40;;;;;;5016462;28;20026;-93
2022/11/15 03:16:41;;;;;;;4.32;3.08;;;10.90;81.30;;;;;;5033262;28;20018;-92
2022/11/15 03:19:33;;;;;;;3.80;2.88;;;10.90;81.30;;;;;;5032221;28;20037;-92
2022/11/15 03:22:04;;;;;;;3.95;2.65;;;10.90;81.40;;;;;;5019331;28;20037;-93
2022/11/15 03:24:35;;;;;;;4.78;3.47;;;11.00;81.40;;;;;;5031257;28;20033;-93
2022/11/15 03:27:01;;;;;;;6.07;3.08;;;11.00;81.40;;;;;;5015049;28;20427;-92
2022/11/15 03:29:32;;;;;;;5.63;3.03;;;11.00;81.40;;;;;;5014977;28;20036;-92
2022/11/15 03:32:21;;;;;;;5.30;3.35;;;11.00;81.40;;;;;;5007254;28;20018;-92
2022/11/15 03:35:03;;;;;;;5.18;3.08;;;11.10;81.50;;;;;;5015582;28;20465;-92
2022/11/15 03:37:52;;;;;;;5.60;3.50;;;11.10;81.60;;;;;;5029634;28;20133;-93
2022/11/15 03:40:27;;;;;;;3.95;2.88;;;11.10;81.50;;;;;;5007521;28;20025;-90
2022/11/15 03:43:29;;;;;;;2.88;2.60;;;11.10;81.60;;;;;;5015956;28;20461;-93
2022/11/15 03:46:07;;;;;;;2.45;2.20;;;11.10;81.50;;;;;;5007703;28;20034;-93
2022/11/15 03:49:03;;;;;;;4.15;2.42;;;11.20;81.50;;;;;;5031833;28;20026;-93
2022/11/15 03:51:33;;;;;;;3.20;2.75;;;11.20;81.40;;;;;;5027038;28;20057;-92
2022/11/15 03:53:59;;;;;;;3.83;3.00;;;11.20;81.60;;;;;;5029659;28;20472;-93
2022/11/15 03:56:25;;;;;;;5.38;3.30;;;11.20;81.50;;;;;;5014948;28;20037;-92
2022/11/15 03:58:51;;;;;;;3.80;2.85;;;11.20;81.50;;;;;;5015767;28;20080;-91
2022/11/15 04:01:16;;;;;;;3.28;2.35;;;11.20;81.50;;;;;;5015296;28;20500;-92
2022/11/15 04:03:43;;;;;;;3.42;2.65;;;11.30;81.60;;;;;;5012320;28;20029;-91
2022/11/15 04:06:16;;;;;;;3.50;3.15;;;11.30;81.50;;;;;;4995959;28;20038;-92
2022/11/15 04:08:51;;;;;;;5.20;3.65;;;11.40;81.50;;;;;;5012843;28;20030;-91
2022/11/15 04:11:16;;;;;;;4.95;3.50;;;11.40;81.50;;;;;;5015362;28;20042;-91
2022/11/15 04:13:51;;;;;;;5.72;3.80;;;11.40;81.60;;;;;;5013060;28;20081;-91
2022/11/15 04:16:20;;;;;;;6.07;3.30;;;11.40;81.60;;;;;;5013720;28;20468;-91
2022/11/15 04:24:37;;;;;;;6.88;4.40;;;11.50;81.70;;;;;;5018288;28;20040;-91
2022/11/15 04:27:04;;;;;;;4.10;2.78;;;11.50;81.90;;;;;;4999892;28;20468;-91
2022/11/15 04:29:36;;;;;;;4.40;3.38;;;11.50;81.90;;;;;;5016206;28;20414;-92
2022/11/15 04:32:21;;;;;;;3.83;3.13;;;11.60;82.00;;;;;;5008112;28;20082;-91
2022/11/15 04:34:47;;;;;;;5.43;3.63;;;11.60;81.90;;;;;;5030480;28;20022;-91
2022/11/15 04:37:41;;;;;;;6.50;3.10;;;11.60;82.40;;;;;;5013143;28;20424;-92
2022/11/15 04:40:21;;;;;;;4.50;2.70;;;11.60;81.70;;;;;;5013692;28;20037;-91
2022/11/15 04:42:59;;;;;;;3.55;2.85;;;11.60;81.70;;;;;;5014085;28;20508;-91
2022/11/15 04:45:33;;;;;;;6.28;2.80;;;11.70;81.80;;;;;;5029798;28;20029;-91
2022/11/15 04:48:05;;;;;;;3.30;2.92;;;11.70;81.70;;;;;;4998241;28;20045;-91
2022/11/15 04:50:34;;;;;;;4.43;3.13;;;11.80;81.60;;;;;;4999090;28;20104;-91
2022/11/15 04:53:07;;;;;;;3.53;3.20;;;11.80;81.60;;;;;;5014879;28;20389;-91
2022/11/15 04:55:47;;;;;;;6.07;2.72;;;11.80;81.70;;;;;;5014674;28;20060;-91
2022/11/15 04:58:15;;;;;;;3.92;2.88;;;11.80;81.80;;;;;;5014433;28;20115;-90
2022/11/15 05:01:13;;;;;;;4.20;2.88;;;11.80;81.80;;;;;;5020121;28;20026;-90
2022/11/15 05:06:23;;;;;;;4.10;2.85;;;11.80;81.90;;;;;;5028504;28;20045;-91
2022/11/15 05:08:48;;;;;;;5.25;3.65;;;11.80;82.60;;;;;;5014745;28;20034;-91
2022/11/15 05:11:14;;;;;;;9.35;3.20;;;11.80;82.10;;;;;;5011571;28;20448;-91
2022/11/15 05:13:39;;;;;;;3.35;3.05;;;11.80;82.00;;;;;;4995851;28;20026;-91
2022/11/15 05:16:05;;;;;;;3.80;3.08;;;11.90;82.10;;;;;;5012391;28;20018;-91
2022/11/15 05:18:31;;;;;;;4.35;3.03;;;11.90;82.00;;;;;;4999099;28;20138;-91
2022/11/15 05:21:12;;;;;;;4.78;2.90;;;11.90;81.90;;;;;;5028840;28;20041;-90
2022/11/15 05:23:38;;;;;;;4.07;2.58;;;11.90;81.90;;;;;;5019985;28;20062;-92
2022/11/15 05:26:08;;;;;;;5.28;2.92;;;11.90;82.00;;;;;;5015282;28;20022;-91
2022/11/15 05:28:34;;;;;;;4.65;2.92;;;12.00;82.10;;;;;;5030240;28;20468;-91
2022/11/15 05:31:11;;;;;;;3.20;2.40;;;12.00;82.10;;;;;;5013189;28;20038;-91
2022/11/15 05:33:41;;;;;;;5.22;2.75;;;12.00;82.10;;;;;;5008273;28;20109;-90
2022/11/15 05:36:31;;;;;;;3.53;2.80;;;12.00;82.10;;;;;;5027975;28;20062;-90
2022/11/15 05:38:56;;;;;;;5.00;2.97;;;12.10;82.00;;;;;;5035497;28;20037;-92
2022/11/15 05:41:47;;;;;;;4.43;2.63;;;12.00;82.10;;;;;;5030414;28;20033;-91
2022/11/15 05:44:23;;;;;;;6.38;3.67;;;12.10;81.90;;;;;;5048770;28;20400;-66
2022/11/15 05:46:53;;;;;;;6.78;2.90;;;12.00;82.60;;;;;;5037680;28;20028;-66
2022/11/15 05:49:23;;;;;;;5.35;3.28;;;12.10;82.50;;;;;;5032366;28;20409;-66
2022/11/15 05:51:51;;;;;;;5.00;3.15;;;12.10;82.50;;;;;;5039093;28;20032;-66
2022/11/15 05:54:19;;;;;;;3.40;2.90;;;12.10;82.50;;;;;;5031701;28;20037;-66
2022/11/15 05:56:45;;;;;;;3.28;2.13;;;12.10;82.50;;;;;;5037501;28;20396;-65
2022/11/15 05:59:11;;;;;;;3.13;2.83;;;12.20;82.50;;;;;;5034253;28;20057;-66
2022/11/15 06:01:38;;;;;;;4.57;3.05;;;12.10;82.40;;;;;;5063778;28;20279;-67
2022/11/15 06:04:04;;;;;;;4.22;2.55;;;12.10;82.40;;;;;;5031939;28;20018;-66
2022/11/15 06:06:29;;;;;;;4.18;2.38;;;12.20;82.40;;;;;;5030651;28;20091;-66
2022/11/15 06:08:55;;;;;;;9.23;3.15;;;12.20;82.40;;;;;;5032737;28;20341;-65
2022/11/15 06:11:21;;;;;;;4.07;2.65;;;12.20;82.40;;;;;;5054170;28;20070;-65
2022/11/15 06:13:46;;;;;;;7.05;3.70;;;12.20;82.30;;;;;;5045753;28;20063;-65
2022/11/15 06:16:12;;;;;;;4.55;2.95;;;12.20;82.30;;;;;;5037811;28;20045;-65
2022/11/15 06:18:38;;;;;;;4.43;2.70;;;12.20;82.30;;;;;;5032800;28;20113;-65
2022/11/15 06:21:04;;;;;;;5.22;3.22;;;12.20;82.40;;;;;;5040252;28;20021;-66
2022/11/15 06:23:34;;;;;;;3.90;2.75;;;12.20;82.40;;;;;;5030815;28;20065;-66
2022/11/15 06:26:01;;;;;;;6.97;3.20;;;12.20;82.40;;;;;;5031176;28;20017;-66
2022/11/15 06:28:31;;;;;;;3.45;2.67;;;12.20;83.10;;;;;;5022487;28;20030;-66
2022/11/15 06:31:03;;;;;;;7.05;2.60;;;12.20;82.50;;;;;;5030019;28;20384;-66
2022/11/15 06:33:29;;;;;;;4.57;3.10;;;12.30;82.50;;;;;;5037061;28;20025;-66
2022/11/15 06:35:54;;;;;;;4.88;3.05;;;12.30;82.50;;;;;;5040601;28;20072;-67
2022/11/15 06:38:20;;;;;;;3.63;2.63;;;12.30;82.50;;;;;;5030802;28;20076;-66
2022/11/15 06:40:46;;;;;;;6.03;2.78;;;12.30;82.40;;;;;;5032386;28;20559;-68
2022/11/15 06:43:12;;;;;;;3.58;2.38;;;12.30;82.40;;;;;;5036117;28;20127;-68
2022/11/15 06:45:38;;;;;;;5.30;2.67;;;12.30;83.00;;;;;;5030650;28;20030;-68
2022/11/15 06:48:03;;;;;;;3.65;2.50;;;12.40;82.40;;;;;;5029483;28;20025;-65
2022/11/15 06:50:29;;;;;;;4.82;2.72;;;12.40;83.10;;;;;;5040918;28;20029;-68
2022/11/15 06:52:55;;;;;;;4.60;2.45;;;12.40;82.50;;;;;;5040332;28;20044;-68
2022/11/15 06:55:20;;;;;;;5.00;2.72;;;12.40;82.60;;;;;;5028729;28;20117;-68
2022/11/15 06:57:51;;;;;;;4.40;2.50;;;12.40;82.60;;;;;;5027247;28;20049;-68
2022/11/15 07:00:20;;;;;;;3.58;2.33;;;12.40;82.60;;;;;;5022185;28;20391;-67
2022/11/15 07:02:46;;;;;;;9.20;2.70;;;12.40;82.60;;;;;;5017528;28;20072;-66
2022/11/15 07:05:12;;;;;;;4.68;3.28;;;12.40;82.60;;;;;;5007933;28;20029;-66
2022/11/15 07:07:38;;;;;;;6.45;3.22;;;12.40;82.70;;;;;;5053757;28;20029;-68
2022/11/15 07:10:05;;;;;;;4.68;2.70;;;12.40;82.60;;;;;;5020877;28;20104;-66
2022/11/15 07:12:31;;;;;;;4.50;2.78;;;12.40;82.70;;;;;;5018058;28;20824;-66
2022/11/15 07:14:56;;;;;;;4.18;3.00;;;12.40;82.70;;;;;;5015482;28;20064;-66
2022/11/15 07:17:22;;;;;;;3.45;2.47;;;12.40;82.80;;;;;;5025819;28;20044;-65
2022/11/15 07:19:48;;;;;;;2.85;2.60;;;12.40;82.70;;;;;;5023006;28;20029;-66
2022/11/15 07:22:13;;;;;;;4.63;2.65;;;12.40;82.70;;;;;;5044016;28;20040;-65
2022/11/15 07:24:39;;;;;;;3.35;2.60;;;12.50;82.80;;;;;;5019164;28;20109;-66
2022/11/15 07:27:04;;;;;;;6.60;3.67;;;12.50;82.80;;;;;;5012450;28;20385;-68
2022/11/15 07:29:30;;;;;;;3.10;2.28;;;12.40;83.00;;;;;;5019866;28;20034;-66
2022/11/15 07:31:56;;;;;;;3.95;2.92;;;12.50;83.00;;;;;;5020108;28;20036;-66
2022/11/15 07:34:22;;;;;;;6.75;3.13;;;12.50;83.00;;;;;;5019874;28;20042;-66
2022/11/15 07:36:47;;;;;;;4.32;2.97;;;12.50;83.20;;;;;;5007511;28;20400;-66
2022/11/15 07:39:13;;;;;;;4.57;2.95;;;12.50;83.20;;;;;;5024731;28;20030;-66
2022/11/15 07:41:39;;;;;;;3.33;3.03;;;12.50;83.20;;;;;;5006101;28;20028;-66
2022/11/15 07:44:05;;;;;;;3.03;2.55;;;12.50;83.30;;;;;;5004793;28;20050;-65
2022/11/15 07:46:31;;;;;;;5.70;2.90;;;12.50;83.40;;;;;;5005332;28;20041;-65
2022/11/15 07:48:57;;;;;;;4.45;3.22;;;12.50;83.40;;;;;;5007306;28;20554;-65
2022/11/15 07:51:23;;;;;;;4.28;3.08;;;12.50;83.30;;;;;;5005434;28;20050;-67
2022/11/15 07:53:48;;;;;;;4.50;2.42;;;12.60;83.40;;;;;;5010388;28;20084;-66
2022/11/15 07:56:14;;;;;;;4.78;2.60;;;12.60;83.30;;;;;;5022305;28;20038;-66
2022/11/15 07:58:40;;;;;;;6.57;2.60;;;12.60;83.30;;;;;;5007327;28;20029;-67
2022/11/15 08:01:09;;;;;;;3.35;2.58;;;12.60;83.30;;;;;;5006244;28;20030;-67
2022/11/15 08:03:35;;;;;;;4.57;2.85;;;12.60;83.30;;;;;;5010215;28;20443;-66
2022/11/15 08:06:01;;;;;;;3.65;2.55;;;12.60;83.30;;;;;;5008521;28;20028;-67
2022/11/15 08:08:27;;;;;;;4.70;2.78;;;12.70;83.30;;;;;;5006664;28;20465;-65
2022/11/15 08:10:53;;;;;;;5.20;2.45;;;12.70;83.20;;;;;;5008760;28;20049;-66
2022/11/15 08:13:19;;;;;;;3.08;2.20;;;12.70;83.10;;;;;;5006006;28;20388;-65
2022/11/15 08:15:45;;;;;;;3.72;2.90;;;12.70;83.10;;;;;;5009877;28;20037;-66
2022/11/15 08:18:15;;;;;;;2.83;2.10;;;12.80;83.20;;;;;;5014788;28;20544;-67
2022/11/15 08:20:41;;;;;;;2.88;2.13;;;12.80;83.20;;;;;;5026751;28;20026;-68
2022/11/15 08:23:08;;;;;;;3.70;2.05;;;12.80;83.20;;;;;;5014761;28;20041;-67
2022/11/15 08:25:35;;;;;;;3.92;2.13;;;12.80;83.10;;;;;;5016067;28;20135;-65
2022/11/15 08:28:03;;;;;;;2.78;2.22;;;12.80;83.10;;;;;;5007765;28;20079;-65
2022/11/15 08:30:30;;;;;;;3.28;1.88;;;12.80;83.20;;;;;;5008836;28;20033;-66
2022/11/15 08:32:58;;;;;;;3.92;2.63;;;12.80;83.10;;;;;;5011656;28;20029;-65
2022/11/15 08:35:24;;;;;;;2.45;2.25;;;12.90;83.10;;;;;;5015777;28;20042;-66
2022/11/15 08:37:52;;;;;;;4.03;2.72;;;12.90;83.10;;;;;;5012071;28;20029;-64
2022/11/15 08:40:19;;;;;;;3.03;2.00;;;12.90;83.10;;;;;;5019154;28;20088;-65
2022/11/15 08:42:47;;;;;;;2.50;2.13;;;12.90;83.10;;;;;;5016451;28;20047;-65
2022/11/15 08:45:13;;;;;;;6.03;1.73;;;13.00;83.20;;;;;;5018860;28;20029;-65
2022/11/15 08:47:38;;;;;;;3.65;2.53;;;13.00;83.20;;;;;;5026496;28;20443;-65
2022/11/15 08:50:05;;;;;;;3.13;2.22;;;13.00;83.20;;;;;;5014791;28;20079;-65
2022/11/15 08:52:31;;;;;;;3.45;2.30;;;13.00;83.10;;;;;;5003964;28;20046;-65
2022/11/15 08:54:57;;;;;;;3.58;2.40;;;13.10;83.10;;;;;;5019248;28;20112;-65
2022/11/15 08:57:23;;;;;;;2.50;1.90;;;13.10;83.00;;;;;;5009559;28;20120;-65
2022/11/15 08:59:48;;;;;;;4.55;2.35;;;13.20;83.00;;;;;;5007564;28;20033;-66
2022/11/15 09:02:15;;;;;;;2.40;1.73;;;13.20;83.00;;;;;;5011889;28;20124;-66
2022/11/15 09:04:42;;;;;;;3.35;2.10;;;13.30;83.00;;;;;;5007321;28;20034;-66
2022/11/15 09:07:10;;;;;;;4.13;2.42;;;13.30;83.00;;;;;;5009016;28;20017;-66
2022/11/15 09:09:36;;;;;;;5.40;2.70;;;13.30;83.20;;;;;;5018604;28;20112;-66
2022/11/15 09:12:02;;;;;;;4.50;2.35;;;13.30;83.20;;;;;;5012841;28;20109;-66
2022/11/15 09:14:28;;;;;;;2.90;2.47;;;13.40;83.30;;;;;;5012288;28;20034;-66
2022/11/15 09:16:53;;;;;;;2.45;2.25;;;13.40;83.30;;;;;;5008428;28;20025;-66
2022/11/15 09:19:19;;;;;;;3.10;2.05;;;13.40;83.40;;;;;;5017702;28;20044;-66
2022/11/15 09:21:45;;;;;;;7.00;3.03;;;13.40;83.40;;;;;;5006702;28;20052;-66
2022/11/15 09:24:10;;;;;;;2.88;2.10;;;13.40;83.40;;;;;;5010093;28;20117;-67
2022/11/15 09:26:36;;;;;;;4.97;2.70;;;13.30;83.50;;;;;;5014361;28;20116;-68
2022/11/15 09:29:02;;;;;;;2.78;2.25;;;13.30;83.80;;;;;;5014825;28;20040;-67
2022/11/15 09:31:29;;;;;;;5.53;2.65;;;13.20;83.90;;;;;;5020504;28;20048;-67
2022/11/15 09:33:55;;;;;;;2.55;2.13;;;13.20;84.00;;;;;;5000593;28;20045;-65
2022/11/15 09:36:20;;;;;;;2.83;2.10;;;13.20;84.00;;;;;;5009744;28;20393;-68
2022/11/15 09:38:46;;;;;;;3.25;1.88;;;13.30;83.90;;;;;;5011738;28;20030;-68
2022/11/15 09:41:12;;;;;;;2.33;1.52;;;13.30;83.90;;;;;;5013842;28;20448;-67
2022/11/15 09:43:57;;;;;;;3.28;2.33;;;13.30;84.00;;;;;;5014389;28;20167;-67
2022/11/15 09:46:41;;;;;;;2.70;2.15;;;13.30;84.00;;;;;;5006942;28;20100;-66
2022/11/15 09:49:08;;;;;;;2.95;2.38;;;13.40;83.80;;;;;;5008217;28;20057;-67
2022/11/15 09:51:46;;;;;;;3.90;1.70;;;13.40;83.90;;;;;;5000991;28;20032;-67
2022/11/15 09:54:21;;;;;;;3.63;2.00;;;13.40;83.90;;;;;;5008635;28;20560;-67
2022/11/15 09:56:47;;;;;;;3.33;2.15;;;13.40;83.90;;;;;;5008120;28;20048;-66
2022/11/15 09:59:39;;;;;;;2.92;1.80;;;13.40;83.90;;;;;;5006378;28;20034;-67
2022/11/15 10:02:07;;;;;;;1.88;1.77;;;13.40;83.80;;;;;;5000350;28;20033;-67
2022/11/15 10:04:36;;;;;;;3.08;2.13;;;13.50;83.90;;;;;;5001813;28;20113;-66
2022/11/15 10:07:18;;;;;;;2.78;1.73;;;13.70;84.00;;;;;;5010742;28;20129;-67
2022/11/15 10:09:57;;;;;;;2.88;1.80;;;13.90;83.60;;;;;;5008278;28;20040;-66
2022/11/15 10:12:25;;;;;;;2.08;1.60;;;14.10;83.00;;;;;;5010838;28;20069;-67
2022/11/15 10:15:14;;;;;;;3.28;1.92;;;14.20;82.70;;;;;;5001423;28;20026;-66
2022/11/15 10:17:42;;;;;;;2.53;1.95;;;14.20;82.70;;;;;;5014581;28;20029;-66
2022/11/15 10:20:11;;;;;;;1.60;1.42;;;14.20;82.60;;;;;;5002742;28;20041;-66
2022/11/15 10:22:47;;;;;;;1.75;1.50;;;14.20;82.50;;;;;;5008304;28;20029;-67
2022/11/15 10:25:26;;;;;;;3.03;1.60;;;14.20;82.50;;;;;;5007181;28;20030;-68
2022/11/15 10:28:11;;;;;;;3.08;1.83;;;14.00;82.80;;;;;;5006569;28;20034;-66
2022/11/15 10:30:41;;;;;;;2.28;1.60;;;14.00;83.00;;;;;;5010054;28;20038;-66
2022/11/15 10:33:25;;;;;;;2.80;2.10;;;13.90;83.00;;;;;;5010660;28;20064;-66
2022/11/15 10:36:08;;;;;;;2.63;1.67;;;13.90;83.10;;;;;;5005165;28;20036;-66
2022/11/15 10:38:49;;;;;;;1.85;1.40;;;13.80;83.20;;;;;;5007706;28;20025;-66
2022/11/15 10:41:37;;;;;;;4.38;2.03;;;13.70;83.50;;;;;;5020496;28;20033;-66
2022/11/15 10:44:08;;;;;;;1.38;1.17;;;13.70;83.60;;;;;;5024472;28;20501;-66
2022/11/15 10:46:36;;;;;;;2.22;1.40;;;13.70;83.50;;;;;;5015054;28;20030;-65
2022/11/15 10:49:22;;;;;;;2.92;1.65;;;13.80;83.10;;;;;;5014141;28;20084;-66
2022/11/15 10:51:51;;;;;;;1.55;1.25;;;14.00;82.80;;;;;;5018511;28;20104;-65
2022/11/15 10:54:21;;;;;;;1.70;1.60;;;14.10;82.50;;;;;;5014393;28;20030;-66
2022/11/15 10:56:53;;;;;;;1.73;1.40;;;14.70;81.90;;;;;;5015413;28;20080;-67
2022/11/15 10:59:27;;;;;;;1.23;1.00;;;16.50;78.30;;;;;;5040377;28;20042;-67
2022/11/15 11:01:53;;;;;;;1.27;0.80;;;18.20;73.70;;;;;;5012145;28;20040;-67
2022/11/15 11:04:19;;;;;;;1.10;0.80;;;20.00;69.10;;;;;;5016770;28;20567;-67
2022/11/15 11:06:49;;;;;;;1.13;0.90;;;20.90;64.50;;;;;;5021337;28;20037;-67
2022/11/15 11:09:28;;;;;;;0.77;0.60;;;20.70;63.70;;;;;;5014182;28;20029;-67
2022/11/15 11:11:54;;;;;;;1.10;0.70;;;20.00;63.70;;;;;;5014925;28;20033;-66
2022/11/15 11:14:35;;;;;;;0.88;0.55;;;19.80;64.60;;;;;;5039124;28;20038;-67
2022/11/15 11:17:29;;;;;;;0.75;0.68;;;19.60;64.40;;;;;;5009174;28;20384;-67
2022/11/15 11:20:22;;;;;;;0.77;0.55;;;19.30;64.70;;;;;;5012331;28;20045;-67
2022/11/15 11:23:40;;;;;;;1.50;0.85;;;19.80;64.50;;;;;;5012368;28;20072;-67
2022/11/15 11:26:26;;;;;;;2.20;0.93;;;20.80;62.80;;;;;;4986279;28;20031;-68
2022/11/15 11:29:16;;;;;;;1.42;0.70;;;21.40;60.20;;;;;;4980845;28;20027;-67
2022/11/15 11:31:58;;;;;;;1.15;0.63;;;21.90;58.90;;;;;;4999953;28;20053;-67
2022/11/15 11:34:34;;;;;;;0.85;0.60;;;22.10;57.60;;;;;;5012382;28;20389;-67
2022/11/15 11:37:34;;;;;;;0.88;0.63;;;22.50;55.60;;;;;;5012379;28;20029;-67
2022/11/15 11:40:32;;;;;;;0.50;0.50;;;23.00;53.90;;;;;;5012030;28;20022;-68
2022/11/15 11:43:01;;;;;;;0.50;0.30;;;23.60;53.10;;;;;;5010500;28;20045;-68
2022/11/15 11:45:46;;;;;;;1.35;0.35;;;24.00;50.60;;;;;;5012681;28;20484;-68
2022/11/15 11:48:22;;;;;;;1.58;0.95;;;25.10;49.20;;;;;;5008914;28;20026;-68
2022/11/15 11:50:49;;;;;;;0.47;0.40;;;26.00;47.20;;;;;;5012533;28;20026;-69
2022/11/15 11:53:42;;;;;;;0.90;0.65;;;26.70;46.90;;;;;;5010827;28;20064;-69
2022/11/15 11:56:28;;;;;;;0.65;0.35;;;27.10;45.80;;;;;;5008257;28;20094;-69
2022/11/15 11:59:00;;;;;;;4.13;0.60;;;27.10;43.30;;;;;;5012360;28;20034;-68
2022/11/15 12:01:34;;;;;;;1.75;0.57;;;27.10;43.30;;;;;;5004916;28;20054;-68
2022/11/15 12:04:11;;;;;;;0.60;0.50;;;26.80;42.80;;;;;;5005142;28;20465;-69
2022/11/15 12:06:54;;;;;;;0.93;0.47;;;26.20;42.50;;;;;;5012221;28;20045;-68
2022/11/15 12:09:44;;;;;;;0.68;0.50;;;25.30;43.50;;;;;;5010772;28;20060;-68
2022/11/15 12:12:47;;;;;;;0.52;0.50;;;24.40;44.00;;;;;;5010864;28;20109;-68
2022/11/15 12:15:17;;;;;;;1.75;0.70;;;24.30;45.30;;;;;;5008119;28;20697;-68
2022/11/15 12:17:45;;;;;;;0.40;0.40;;;24.30;45.30;;;;;;5011595;28;20518;-68
2022/11/15 12:20:23;;;;;;;1.27;1.08;;;24.00;45.60;;;;;;5009617;28;20524;-67
2022/11/15 12:23:05;;;;;;;0.40;0.40;;;23.40;46.80;;;;;;5010564;28;20038;-67
2022/11/15 12:25:45;;;;;;;0.38;0.38;;;22.70;47.70;;;;;;5011489;28;20132;-67
2022/11/15 12:28:26;;;;;;;1.30;0.50;;;22.10;48.50;;;;;;5010085;28;20806;-68
2022/11/15 12:31:01;;;;;;;0.30;0.30;;;21.70;49.20;;;;;;5009089;28;20104;-70
2022/11/15 12:33:39;;;;;;;0.40;0.40;;;21.30;50.20;;;;;;5006059;28;20117;-68
2022/11/15 12:36:29;;;;;;;0.40;0.40;;;20.80;50.80;;;;;;5011256;28;20034;-67
2022/11/15 12:39:02;;;;;;;0.30;0.30;;;20.20;51.40;;;;;;5012467;28;20042;-68
2022/11/15 12:41:32;;;;;;;0.60;0.40;;;19.60;52.50;;;;;;5008181;28;20026;-67
2022/11/15 12:44:01;;;;;;;1.00;0.50;;;19.20;53.70;;;;;;5009738;28;20033;-69
2022/11/15 12:46:29;;;;;;;0.40;0.40;;;18.90;54.50;;;;;;5010375;28;20045;-68
2022/11/15 12:49:09;;;;;;;0.63;0.50;;;18.70;55.20;;;;;;5041285;28;20468;-72
2022/11/15 12:51:46;;;;;;;1.45;0.40;;;18.50;55.30;;;;;;5013137;28;20030;-67
2022/11/15 12:54:24;;;;;;;1.13;0.47;;;18.50;55.40;;;;;;5016031;28;20037;-67
2022/11/15 12:57:08;;;;;;;0.20;0.20;;;18.60;54.70;;;;;;5001075;28;20038;-68
2022/11/15 12:59:54;;;;;;;0.45;0.45;;;18.50;54.80;;;;;;5004175;28;20026;-68
2022/11/15 13:02:24;;;;;;;0.20;0.20;;;18.40;55.40;;;;;;5008396;28;20048;-68
2022/11/15 13:04:52;;;;;;;0.43;0.43;;;18.30;55.90;;;;;;5048768;28;20022;-68
2022/11/15 13:07:39;;;;;;;0.30;0.30;;;18.30;56.30;;;;;;5004639;28;20083;-68
2022/11/15 13:10:27;;;;;;;0.50;0.43;;;18.30;56.70;;;;;;5002692;28;20084;-68
2022/11/15 13:12:57;;;;;;;0.47;0.47;;;18.40;56.90;;;;;;5014297;28;20033;-69
2022/11/15 13:15:55;;;;;;;0.30;0.30;;;18.40;56.30;;;;;;5011149;28;20487;-66
2022/11/15 13:18:32;;;;;;;0.40;0.40;;;18.60;56.50;;;;;;5013612;28;20045;-66
2022/11/15 13:20:58;;;;;;;1.77;0.70;;;18.80;55.60;;;;;;5016087;28;20026;-67
2022/11/15 13:23:24;;;;;;;0.55;0.55;;;19.20;54.70;;;;;;5012399;28;20049;-66
2022/11/15 13:25:56;;;;;;;1.10;0.77;;;19.60;54.20;;;;;;4996815;28;20026;-66
2022/11/15 13:28:24;;;;;;;0.87;0.50;;;19.80;53.40;;;;;;5016985;28;20026;-66
2022/11/15 13:30:55;;;;;;;0.30;0.30;;;19.70;52.90;;;;;;5047591;28;20316;-66
2022/11/15 13:33:25;;;;;;;0.77;0.40;;;19.40;53.30;;;;;;5015001;28;20037;-66
2022/11/15 13:35:55;;;;;;;1.17;0.57;;;19.10;54.00;;;;;;5026889;28;20086;-66
2022/11/15 13:38:28;;;;;;;0.60;0.30;;;18.70;55.00;;;;;;5018615;28;20034;-66
2022/11/15 13:40:54;;;;;;;0.32;0.32;;;18.40;55.60;;;;;;5014070;28;20026;-66